DAUU/OGX METAR and TAF weather

Enter ICAO airport designator
Station Type Date Time Source
DAUU METAR 2022/11/30 10:00 UTC NOAA

DAUU 301000Z 00000KT CAVOK 15/02 Q1016


Station Type Date Time Source
DAUU Decoded METAR 2022/11/30 10:00 UTC NOAA

Ouargla, Algeria (DAUU) 31-55N 005-24E 141M
Nov 30, 2022 - 05:00 AM EST / 2022.11.30 1000 UTC
Wind: Calm:0
Visibility: greater than 7 mile(s):0
Temperature: 59 F (15 C)
Dew Point: 35 F (2 C)
Relative Humidity: 41%
Pressure (altimeter): 30.00 in. Hg (1016 hPa)
ob: DAUU 301000Z 00000KT CAVOK 15/02 Q1016
cycle: 10

Station Type Date Time Source
DAUU TAF 2017/11/09 18:03 UTC NOAA

TAF DAUU 091700Z 0918/1009 34012KT 9999 FEW040 SCT100 PROB40
TEMPO 0918/0924 34015G25KT 5000 -TSRA FEW036CB

Example: see airport list